sensor_id;sensor_type;location;lat;lon;timestamp;pressure;altitude;pressure_sealevel;temperature;humidity
27958;BME280;15295;42.658;23.374;2023-04-10T00:01:48;94709.22;;;12.82;44.50
27958;BME280;15295;42.658;23.374;2023-04-10T00:04:19;94703.00;;;12.78;43.95
27958;BME280;15295;42.658;23.374;2023-04-10T00:06:44;94699.16;;;12.72;43.12
27958;BME280;15295;42.658;23.374;2023-04-10T00:09:10;94707.00;;;12.70;43.03
27958;BME280;15295;42.658;23.374;2023-04-10T00:11:48;94701.59;;;12.63;42.30
27958;BME280;15295;42.658;23.374;2023-04-10T00:14:13;94701.88;;;12.72;42.18
27958;BME280;15295;42.658;23.374;2023-04-10T00:16:40;94687.19;;;12.52;41.73
27958;BME280;15295;42.658;23.374;2023-04-10T00:19:06;94692.19;;;12.64;41.29
27958;BME280;15295;42.658;23.374;2023-04-10T00:21:38;94685.56;;;12.58;40.89
27958;BME280;15295;42.658;23.374;2023-04-10T00:24:03;94693.41;;;12.59;41.04
27958;BME280;15295;42.658;23.374;2023-04-10T00:26:29;94684.38;;;12.59;40.38
27958;BME280;15295;42.658;23.374;2023-04-10T00:28:56;94678.97;;;12.52;39.95
27958;BME280;15295;42.658;23.374;2023-04-10T00:31:25;94677.38;;;12.54;39.57
27958;BME280;15295;42.658;23.374;2023-04-10T00:33:50;94681.28;;;12.53;39.56
27958;BME280;15295;42.658;23.374;2023-04-10T00:36:22;94673.47;;;12.55;39.39
27958;BME280;15295;42.658;23.374;2023-04-10T00:38:50;94689.88;;;12.59;39.12
27958;BME280;15295;42.658;23.374;2023-04-10T00:41:18;94686.03;;;12.53;39.52
27958;BME280;15295;42.658;23.374;2023-04-10T00:43:44;94687.50;;;12.61;39.59
27958;BME280;15295;42.658;23.374;2023-04-10T00:46:12;94678.91;;;12.59;39.73
27958;BME280;15295;42.658;23.374;2023-04-10T00:48:40;94664.47;;;12.51;39.54
27958;BME280;15295;42.658;23.374;2023-04-10T00:51:06;94670.75;;;12.52;39.38
27958;BME280;15295;42.658;23.374;2023-04-10T00:53:32;94671.56;;;12.49;39.88
27958;BME280;15295;42.658;23.374;2023-04-10T00:56:00;94648.19;;;12.37;40.13
27958;BME280;15295;42.658;23.374;2023-04-10T00:58:25;94685.91;;;12.63;40.41
27958;BME280;15295;42.658;23.374;2023-04-10T01:00:51;94676.13;;;12.62;40.53
27958;BME280;15295;42.658;23.374;2023-04-10T01:03:18;94659.81;;;12.48;40.78
27958;BME280;15295;42.658;23.374;2023-04-10T01:11:47;94662.88;;;12.57;43.75
27958;BME280;15295;42.658;23.374;2023-04-10T01:17:07;94659.03;;;12.48;45.24
27958;BME280;15295;42.658;23.374;2023-04-10T01:22:03;94667.53;;;12.60;45.32
27958;BME280;15295;42.658;23.374;2023-04-10T01:28:15;94668.16;;;12.75;45.62
27958;BME280;15295;42.658;23.374;2023-04-10T01:31:00;94658.81;;;12.69;45.44
27958;BME280;15295;42.658;23.374;2023-04-10T01:33:46;94659.19;;;12.71;45.47
27958;BME280;15295;42.658;23.374;2023-04-10T01:36:31;94660.03;;;12.68;44.72
27958;BME280;15295;42.658;23.374;2023-04-10T01:39:05;94649.84;;;12.65;43.90
27958;BME280;15295;42.658;23.374;2023-04-10T01:41:32;94669.34;;;12.74;43.42
27958;BME280;15295;42.658;23.374;2023-04-10T01:44:01;94663.81;;;12.77;43.55
27958;BME280;15295;42.658;23.374;2023-04-10T01:46:28;94653.31;;;12.72;43.25
27958;BME280;15295;42.658;23.374;2023-04-10T01:48:54;94643.19;;;12.66;42.98
27958;BME280;15295;42.658;23.374;2023-04-10T01:51:28;94668.50;;;12.77;43.19
27958;BME280;15295;42.658;23.374;2023-04-10T01:53:56;94665.78;;;12.77;42.85
27958;BME280;15295;42.658;23.374;2023-04-10T01:56:22;94656.13;;;12.65;42.93
27958;BME280;15295;42.658;23.374;2023-04-10T01:58:47;94666.25;;;12.72;43.20
27958;BME280;15295;42.658;23.374;2023-04-10T02:01:19;94670.41;;;12.83;43.15
27958;BME280;15295;42.658;23.374;2023-04-10T02:03:49;94638.47;;;12.66;43.01
27958;BME280;15295;42.658;23.374;2023-04-10T02:09:20;94663.66;;;12.91;42.85
27958;BME280;15295;42.658;23.374;2023-04-10T02:12:01;94647.38;;;12.77;42.92
27958;BME280;15295;42.658;23.374;2023-04-10T02:14:31;94652.78;;;12.84;43.18
27958;BME280;15295;42.658;23.374;2023-04-10T02:17:01;94649.63;;;12.86;43.06
27958;BME280;15295;42.658;23.374;2023-04-10T02:19:30;94639.91;;;12.78;43.37
27958;BME280;15295;42.658;23.374;2023-04-10T02:21:58;94635.28;;;12.71;43.81
27958;BME280;15295;42.658;23.374;2023-04-10T02:24:36;94643.34;;;12.85;43.61
27958;BME280;15295;42.658;23.374;2023-04-10T02:27:07;94645.22;;;12.92;43.36
27958;BME280;15295;42.658;23.374;2023-04-10T02:29:39;94631.63;;;12.85;43.14
27958;BME280;15295;42.658;23.374;2023-04-10T02:32:05;94622.25;;;12.79;42.75
27958;BME280;15295;42.658;23.374;2023-04-10T02:34:31;94640.22;;;12.87;42.83
27958;BME280;15295;42.658;23.374;2023-04-10T02:37:03;94619.94;;;12.77;42.89
27958;BME280;15295;42.658;23.374;2023-04-10T02:39:30;94620.66;;;12.85;42.45
27958;BME280;15295;42.658;23.374;2023-04-10T02:41:55;94624.28;;;12.75;42.56
27958;BME280;15295;42.658;23.374;2023-04-10T02:44:23;94617.94;;;12.81;42.33
27958;BME280;15295;42.658;23.374;2023-04-10T02:46:49;94612.81;;;12.83;42.46
27958;BME280;15295;42.658;23.374;2023-04-10T02:49:14;94588.69;;;12.71;42.50
27958;BME280;15295;42.658;23.374;2023-04-10T02:57:20;94614.09;;;12.75;42.59
27958;BME280;15295;42.658;23.374;2023-04-10T02:59:50;94596.59;;;12.66;42.96
27958;BME280;15295;42.658;23.374;2023-04-10T03:02:18;94604.22;;;12.81;42.98
27958;BME280;15295;42.658;23.374;2023-04-10T03:04:44;94597.63;;;12.75;42.64
27958;BME280;15295;42.658;23.374;2023-04-10T03:07:10;94609.84;;;12.71;42.71
27958;BME280;15295;42.658;23.374;2023-04-10T03:09:36;94613.03;;;12.66;42.86
27958;BME280;15295;42.658;23.374;2023-04-10T03:12:02;94605.00;;;12.48;43.28
27958;BME280;15295;42.658;23.374;2023-04-10T03:14:32;94603.78;;;12.53;43.50
27958;BME280;15295;42.658;23.374;2023-04-10T03:17:02;94606.91;;;12.55;43.65
27958;BME280;15295;42.658;23.374;2023-04-10T03:19:29;94594.84;;;12.45;43.74
27958;BME280;15295;42.658;23.374;2023-04-10T03:22:01;94608.84;;;12.54;44.07
27958;BME280;15295;42.658;23.374;2023-04-10T03:24:33;94601.81;;;12.53;44.06
27958;BME280;15295;42.658;23.374;2023-04-10T03:26:59;94617.75;;;12.62;44.25
27958;BME280;15295;42.658;23.374;2023-04-10T03:29:25;94612.69;;;12.64;44.27
27958;BME280;15295;42.658;23.374;2023-04-10T03:31:50;94604.47;;;12.60;44.16
27958;BME280;15295;42.658;23.374;2023-04-10T03:34:17;94595.19;;;12.51;44.07
27958;BME280;15295;42.658;23.374;2023-04-10T03:36:42;94611.91;;;12.60;44.26
27958;BME280;15295;42.658;23.374;2023-04-10T03:39:08;94599.94;;;12.47;44.16
27958;BME280;15295;42.658;23.374;2023-04-10T03:41:33;94596.81;;;12.45;44.79
27958;BME280;15295;42.658;23.374;2023-04-10T03:43:59;94577.03;;;12.64;48.57
27958;BME280;15295;42.658;23.374;2023-04-10T03:46:31;94605.38;;;12.84;45.55
27958;BME280;15295;42.658;23.374;2023-04-10T03:49:02;94633.88;;;12.90;44.93
27958;BME280;15295;42.658;23.374;2023-04-10T03:51:28;94618.75;;;12.78;44.39
27958;BME280;15295;42.658;23.374;2023-04-10T03:53:53;94611.03;;;12.70;44.32
27958;BME280;15295;42.658;23.374;2023-04-10T03:56:21;94609.09;;;12.67;44.24
27958;BME280;15295;42.658;23.374;2023-04-10T03:58:52;94616.97;;;12.65;44.27
27958;BME280;15295;42.658;23.374;2023-04-10T04:01:19;94614.38;;;12.51;44.27
27958;BME280;15295;42.658;23.374;2023-04-10T04:03:45;94626.88;;;12.55;44.37
27958;BME280;15295;42.658;23.374;2023-04-10T04:06:11;94625.41;;;12.44;44.66
27958;BME280;15295;42.658;23.374;2023-04-10T04:08:38;94638.69;;;12.49;44.88
27958;BME280;15295;42.658;23.374;2023-04-10T04:11:05;94605.25;;;12.23;45.00
27958;BME280;15295;42.658;23.374;2023-04-10T04:13:31;94628.16;;;12.44;45.30
27958;BME280;15295;42.658;23.374;2023-04-10T04:15:59;94627.41;;;12.39;45.35
27958;BME280;15295;42.658;23.374;2023-04-10T04:18:24;94639.78;;;12.55;45.36
27958;BME280;15295;42.658;23.374;2023-04-10T04:20:50;94629.25;;;12.50;45.55
27958;BME280;15295;42.658;23.374;2023-04-10T04:23:15;94638.56;;;12.59;45.64
27958;BME280;15295;42.658;23.374;2023-04-10T04:25:41;94641.69;;;12.58;45.88
27958;BME280;15295;42.658;23.374;2023-04-10T04:28:08;94642.78;;;12.67;45.65
27958;BME280;15295;42.658;23.374;2023-04-10T04:30:37;94645.09;;;12.69;45.63
27958;BME280;15295;42.658;23.374;2023-04-10T04:33:02;94649.91;;;12.61;45.94
27958;BME280;15295;42.658;23.374;2023-04-10T04:35:27;94649.91;;;12.61;45.80
27958;BME280;15295;42.658;23.374;2023-04-10T04:37:53;94646.00;;;12.59;45.91
27958;BME280;15295;42.658;23.374;2023-04-10T04:40:18;94638.22;;;12.54;45.85
27958;BME280;15295;42.658;23.374;2023-04-10T04:42:44;94652.59;;;12.65;46.13
27958;BME280;15295;42.658;23.374;2023-04-10T04:45:19;94649.84;;;12.65;46.29
27958;BME280;15295;42.658;23.374;2023-04-10T04:47:47;94656.84;;;12.69;46.07
27958;BME280;15295;42.658;23.374;2023-04-10T04:50:13;94653.69;;;12.71;46.06
27958;BME280;15295;42.658;23.374;2023-04-10T04:52:39;94658.38;;;12.74;45.83
27958;BME280;15295;42.658;23.374;2023-04-10T04:55:05;94649.41;;;12.70;45.78
27958;BME280;15295;42.658;23.374;2023-04-10T04:57:30;94666.59;;;12.74;45.95
27958;BME280;15295;42.658;23.374;2023-04-10T04:59:56;94666.13;;;12.79;46.18
27958;BME280;15295;42.658;23.374;2023-04-10T05:02:21;94666.13;;;12.82;45.87
27958;BME280;15295;42.658;23.374;2023-04-10T05:04:47;94660.59;;;12.86;45.92
27958;BME280;15295;42.658;23.374;2023-04-10T05:07:15;94664.78;;;12.97;46.22
27958;BME280;15295;42.658;23.374;2023-04-10T05:09:40;94681.91;;;13.08;46.57
27958;BME280;15295;42.658;23.374;2023-04-10T05:12:06;94657.94;;;13.12;46.63
27958;BME280;15295;42.658;23.374;2023-04-10T05:14:32;94675.78;;;13.28;46.07
27958;BME280;15295;42.658;23.374;2023-04-10T05:16:57;94678.75;;;13.40;45.67
27958;BME280;15295;42.658;23.374;2023-04-10T05:19:23;94675.09;;;13.50;45.64
27958;BME280;15295;42.658;23.374;2023-04-10T05:21:48;94664.91;;;13.47;45.30
27958;BME280;15295;42.658;23.374;2023-04-10T05:24:13;94662.94;;;13.51;44.85
27958;BME280;15295;42.658;23.374;2023-04-10T05:26:39;94677.16;;;13.69;44.95
27958;BME280;15295;42.658;23.374;2023-04-10T05:29:06;94673.59;;;13.72;44.58
27958;BME280;15295;42.658;23.374;2023-04-10T05:31:32;94667.25;;;13.75;44.05
27958;BME280;15295;42.658;23.374;2023-04-10T05:33:57;94674.25;;;13.80;44.15
27958;BME280;15295;42.658;23.374;2023-04-10T05:36:23;94667.44;;;13.91;44.13
27958;BME280;15295;42.658;23.374;2023-04-10T05:38:48;94657.63;;;13.90;44.19
27958;BME280;15295;42.658;23.374;2023-04-10T05:41:15;94667.91;;;14.10;43.66
27958;BME280;15295;42.658;23.374;2023-04-10T05:43:40;94666.72;;;14.11;43.36
27958;BME280;15295;42.658;23.374;2023-04-10T05:46:10;94677.84;;;14.27;43.18
27958;BME280;15295;42.658;23.374;2023-04-10T05:48:36;94676.66;;;14.28;43.08
27958;BME280;15295;42.658;23.374;2023-04-10T05:51:01;94678.13;;;14.36;43.24
27958;BME280;15295;42.658;23.374;2023-04-10T05:53:28;94674.72;;;14.51;43.01
27958;BME280;15295;42.658;23.374;2023-04-10T05:55:56;94676.19;;;14.56;42.71
27958;BME280;15295;42.658;23.374;2023-04-10T05:58:24;94668.50;;;14.67;42.19
27958;BME280;15295;42.658;23.374;2023-04-10T06:00:49;94653.84;;;14.54;42.25
27958;BME280;15295;42.658;23.374;2023-04-10T06:03:15;94653.78;;;14.57;42.13
27958;BME280;15295;42.658;23.374;2023-04-10T06:05:41;94655.47;;;14.51;41.84
27958;BME280;15295;42.658;23.374;2023-04-10T06:08:06;94685.25;;;14.76;41.66
27958;BME280;15295;42.658;23.374;2023-04-10T06:10:33;94679.16;;;14.65;41.61
27958;BME280;15295;42.658;23.374;2023-04-10T06:12:58;94680.72;;;14.66;41.75
27958;BME280;15295;42.658;23.374;2023-04-10T06:15:24;94665.47;;;14.61;42.11
27958;BME280;15295;42.658;23.374;2023-04-10T06:17:50;94684.25;;;14.66;41.67
27958;BME280;15295;42.658;23.374;2023-04-10T06:20:15;94670.28;;;14.57;41.74
27958;BME280;15295;42.658;23.374;2023-04-10T06:22:41;94676.28;;;14.72;42.20
27958;BME280;15295;42.658;23.374;2023-04-10T06:25:07;94676.38;;;14.68;41.81
27958;BME280;15295;42.658;23.374;2023-04-10T06:27:33;94677.38;;;14.55;42.17
27958;BME280;15295;42.658;23.374;2023-04-10T06:30:00;94678.28;;;14.48;41.97
27958;BME280;15295;42.658;23.374;2023-04-10T06:32:27;94672.00;;;14.48;41.85
27958;BME280;15295;42.658;23.374;2023-04-10T06:34:52;94674.03;;;14.44;42.09
27958;BME280;15295;42.658;23.374;2023-04-10T06:37:18;94673.28;;;14.43;42.01
27958;BME280;15295;42.658;23.374;2023-04-10T06:39:43;94681.31;;;14.31;42.15
27958;BME280;15295;42.658;23.374;2023-04-10T06:42:09;94682.13;;;14.31;42.46
27958;BME280;15295;42.658;23.374;2023-04-10T06:44:35;94681.31;;;14.31;42.02
27958;BME280;15295;42.658;23.374;2023-04-10T06:47:06;94683.59;;;14.36;42.10
27958;BME280;15295;42.658;23.374;2023-04-10T06:49:33;94677.44;;;14.28;42.29
27958;BME280;15295;42.658;23.374;2023-04-10T06:52:02;94691.38;;;14.41;42.36
27958;BME280;15295;42.658;23.374;2023-04-10T06:54:28;94690.97;;;14.42;42.10
27958;BME280;15295;42.658;23.374;2023-04-10T06:56:56;94693.63;;;14.46;42.06
27958;BME280;15295;42.658;23.374;2023-04-10T06:59:22;94686.66;;;14.41;42.27
27958;BME280;15295;42.658;23.374;2023-04-10T07:01:48;94678.81;;;14.40;42.41
27958;BME280;15295;42.658;23.374;2023-04-10T07:04:13;94691.56;;;14.53;42.17
27958;BME280;15295;42.658;23.374;2023-04-10T07:06:38;94698.13;;;14.59;41.90
27958;BME280;15295;42.658;23.374;2023-04-10T07:09:04;94677.50;;;14.48;41.73
27958;BME280;15295;42.658;23.374;2023-04-10T07:11:29;94689.63;;;14.50;41.64
27958;BME280;15295;42.658;23.374;2023-04-10T07:13:55;94682.16;;;14.51;41.75
27958;BME280;15295;42.658;23.374;2023-04-10T07:16:22;94689.75;;;14.66;41.78
27958;BME280;15295;42.658;23.374;2023-04-10T07:18:51;94683.56;;;14.62;41.61
27958;BME280;15295;42.658;23.374;2023-04-10T07:26:42;94662.84;;;14.54;40.84
27958;BME280;15295;42.658;23.374;2023-04-10T07:29:27;94638.91;;;14.32;41.55
27958;BME280;15295;42.658;23.374;2023-04-10T07:34:40;94677.84;;;14.73;41.81
27958;BME280;15295;42.658;23.374;2023-04-10T07:43:03;94680.91;;;14.55;41.54
27958;BME280;15295;42.658;23.374;2023-04-10T07:45:30;94684.72;;;14.61;41.80
27958;BME280;15295;42.658;23.374;2023-04-10T07:48:08;94687.75;;;14.67;42.01
27958;BME280;15295;42.658;23.374;2023-04-10T07:50:37;94654.13;;;14.59;41.35
27958;BME280;15295;42.658;23.374;2023-04-10T07:53:04;94664.66;;;14.84;41.68
27958;BME280;15295;42.658;23.374;2023-04-10T07:55:43;94697.28;;;15.05;40.79
27958;BME280;15295;42.658;23.374;2023-04-10T07:58:21;94649.13;;;14.74;40.70
27958;BME280;15295;42.658;23.374;2023-04-10T08:00:57;94690.94;;;15.08;40.81
27958;BME280;15295;42.658;23.374;2023-04-10T08:03:23;94650.06;;;14.87;40.74
27958;BME280;15295;42.658;23.374;2023-04-10T08:05:50;94677.72;;;15.00;40.81
27958;BME280;15295;42.658;23.374;2023-04-10T08:08:17;94687.94;;;14.99;40.87
27958;BME280;15295;42.658;23.374;2023-04-10T08:10:50;94698.81;;;14.87;41.06
27958;BME280;15295;42.658;23.374;2023-04-10T08:13:17;94633.31;;;14.39;41.29
27958;BME280;15295;42.658;23.374;2023-04-10T08:15:50;94632.59;;;14.35;41.51
27958;BME280;15295;42.658;23.374;2023-04-10T08:18:36;94696.25;;;14.76;41.85
27958;BME280;15295;42.658;23.374;2023-04-10T08:41:21;94698.41;;;15.08;41.17
27958;BME280;15295;42.658;23.374;2023-04-10T08:44:06;94629.97;;;14.71;41.56
27958;BME280;15295;42.658;23.374;2023-04-10T08:47:08;94662.91;;;14.94;41.45
27958;BME280;15295;42.658;23.374;2023-04-10T08:53:39;94688.13;;;15.12;40.68
27958;BME280;15295;42.658;23.374;2023-04-10T08:56:30;94622.84;;;14.73;40.66
27958;BME280;15295;42.658;23.374;2023-04-10T08:59:01;94650.84;;;14.88;40.33
27958;BME280;15295;42.658;23.374;2023-04-10T09:01:32;94673.47;;;14.76;40.58
27958;BME280;15295;42.658;23.374;2023-04-10T09:04:00;94668.63;;;14.83;40.72
27958;BME280;15295;42.658;23.374;2023-04-10T09:06:30;94661.19;;;14.80;40.79
27958;BME280;15295;42.658;23.374;2023-04-10T09:08:57;94673.34;;;14.83;40.78
27958;BME280;15295;42.658;23.374;2023-04-10T09:14:24;94664.56;;;14.68;40.14
27958;BME280;15295;42.658;23.374;2023-04-10T09:16:52;94638.53;;;14.53;40.29
27958;BME280;15295;42.658;23.374;2023-04-10T09:19:29;94671.84;;;14.78;40.66
27958;BME280;15295;42.658;23.374;2023-04-10T09:22:01;94625.06;;;14.58;40.65
27958;BME280;15295;42.658;23.374;2023-04-10T09:24:39;94667.91;;;14.79;40.53
27958;BME280;15295;42.658;23.374;2023-04-10T09:43:38;94666.28;;;15.01;41.03
27958;BME280;15295;42.658;23.374;2023-04-10T09:55:08;94614.59;;;14.73;40.95
27958;BME280;15295;42.658;23.374;2023-04-10T10:01:03;94652.91;;;15.03;39.85
27958;BME280;15295;42.658;23.374;2023-04-10T10:46:01;94597.41;;;16.08;36.61
27958;BME280;15295;42.658;23.374;2023-04-10T10:59:56;94538.00;;;16.52;35.96
27958;BME280;15295;42.658;23.374;2023-04-10T11:08:09;94576.22;;;17.74;34.01
27958;BME280;15295;42.658;23.374;2023-04-10T11:55:06;94488.91;;;17.51;33.45
27958;BME280;15295;42.658;23.374;2023-04-10T11:57:34;94550.13;;;17.75;33.58
27958;BME280;15295;42.658;23.374;2023-04-10T12:00:07;94490.88;;;17.26;32.75
27958;BME280;15295;42.658;23.374;2023-04-10T12:02:54;94508.66;;;17.00;33.42
27958;BME280;15295;42.658;23.374;2023-04-10T12:05:45;94491.38;;;16.83;33.59
27958;BME280;15295;42.658;23.374;2023-04-10T12:08:33;94474.59;;;16.65;34.03
27958;BME280;15295;42.658;23.374;2023-04-10T12:33:08;94513.31;;;15.56;42.05
27958;BME280;15295;42.658;23.374;2023-04-10T12:35:55;94495.72;;;15.33;42.81
27958;BME280;15295;42.658;23.374;2023-04-10T12:38:44;94559.81;;;15.86;42.79
27958;BME280;15295;42.658;23.374;2023-04-10T12:41:13;94491.91;;;15.27;42.73
27958;BME280;15295;42.658;23.374;2023-04-10T12:43:52;94495.88;;;15.42;42.13
27958;BME280;15295;42.658;23.374;2023-04-10T12:46:31;94542.81;;;15.87;40.79
27958;BME280;15295;42.658;23.374;2023-04-10T12:52:21;94500.56;;;15.62;39.42
27958;BME280;15295;42.658;23.374;2023-04-10T12:54:47;94483.25;;;15.61;40.06
27958;BME280;15295;42.658;23.374;2023-04-10T13:00:56;94541.78;;;16.13;40.00
27958;BME280;15295;42.658;23.374;2023-04-10T13:06:57;94522.69;;;16.35;39.96
27958;BME280;15295;42.658;23.374;2023-04-10T13:09:45;94534.13;;;16.50;39.64
27958;BME280;15295;42.658;23.374;2023-04-10T13:14:58;94461.53;;;16.24;38.97
27958;BME280;15295;42.658;23.374;2023-04-10T13:17:26;94469.63;;;16.31;38.72
27958;BME280;15295;42.658;23.374;2023-04-10T14:32:06;94417.41;;;15.34;37.45
27958;BME280;15295;42.658;23.374;2023-04-10T15:28:37;94490.41;;;15.75;39.87
27958;BME280;15295;42.658;23.374;2023-04-10T15:36:15;94420.19;;;15.51;39.42
27958;BME280;15295;42.658;23.374;2023-04-10T15:41:26;94436.03;;;15.63;39.31
27958;BME280;15295;42.658;23.374;2023-04-10T15:43:56;94473.50;;;15.89;38.88
27958;BME280;15295;42.658;23.374;2023-04-10T15:46:21;94452.44;;;15.82;38.87
27958;BME280;15295;42.658;23.374;2023-04-10T15:48:50;94461.31;;;16.02;38.95
27958;BME280;15295;42.658;23.374;2023-04-10T15:51:23;94472.25;;;16.35;42.09
27958;BME280;15295;42.658;23.374;2023-04-10T15:53:57;94462.50;;;16.46;39.95
27958;BME280;15295;42.658;23.374;2023-04-10T15:56:31;94438.50;;;16.31;37.90
27958;BME280;15295;42.658;23.374;2023-04-10T15:59:03;94423.78;;;16.21;37.78
27958;BME280;15295;42.658;23.374;2023-04-10T16:01:35;94426.69;;;16.30;37.58
27958;BME280;15295;42.658;23.374;2023-04-10T16:04:14;94415.53;;;16.21;37.55
27958;BME280;15295;42.658;23.374;2023-04-10T16:06:44;94401.81;;;16.05;37.24
27958;BME280;15295;42.658;23.374;2023-04-10T16:09:12;94440.81;;;16.32;36.84
27958;BME280;15295;42.658;23.374;2023-04-10T16:11:39;94383.97;;;15.81;36.78
27958;BME280;15295;42.658;23.374;2023-04-10T16:14:09;94460.38;;;16.38;37.09
27958;BME280;15295;42.658;23.374;2023-04-10T16:16:36;94431.06;;;16.15;36.84
27958;BME280;15295;42.658;23.374;2023-04-10T16:19:10;94418.69;;;16.07;37.35
27958;BME280;15295;42.658;23.374;2023-04-10T16:21:36;94423.34;;;16.10;37.53
27958;BME280;15295;42.658;23.374;2023-04-10T16:24:01;94469.56;;;16.18;37.40
27958;BME280;15295;42.658;23.374;2023-04-10T16:26:27;94472.19;;;16.09;37.78
27958;BME280;15295;42.658;23.374;2023-04-10T16:28:52;94445.47;;;15.62;38.37
27958;BME280;15295;42.658;23.374;2023-04-10T16:31:17;94490.03;;;15.24;42.07
27958;BME280;15295;42.658;23.374;2023-04-10T16:33:44;94486.41;;;14.76;44.26
27958;BME280;15295;42.658;23.374;2023-04-10T16:36:09;94500.38;;;14.65;45.31
27958;BME280;15295;42.658;23.374;2023-04-10T16:38:35;94501.34;;;14.39;46.47
27958;BME280;15295;42.658;23.374;2023-04-10T16:41:04;94506.47;;;14.14;47.26
27958;BME280;15295;42.658;23.374;2023-04-10T16:43:30;94512.72;;;13.94;47.81
27958;BME280;15295;42.658;23.374;2023-04-10T16:45:56;94505.22;;;13.52;48.80
27958;BME280;15295;42.658;23.374;2023-04-10T16:48:22;94492.41;;;13.46;49.91
27958;BME280;15295;42.658;23.374;2023-04-10T16:50:47;94513.94;;;12.94;51.66
27958;BME280;15295;42.658;23.374;2023-04-10T16:53:12;94496.88;;;12.83;52.32
27958;BME280;15295;42.658;23.374;2023-04-10T16:55:38;94495.91;;;12.36;53.06
27958;BME280;15295;42.658;23.374;2023-04-10T16:58:03;94491.31;;;12.29;53.08
27958;BME280;15295;42.658;23.374;2023-04-10T17:00:29;94489.75;;;12.28;53.42
27958;BME280;15295;42.658;23.374;2023-04-10T17:02:54;94481.34;;;12.09;53.30
27958;BME280;15295;42.658;23.374;2023-04-10T17:05:19;94472.97;;;11.89;53.37
27958;BME280;15295;42.658;23.374;2023-04-10T17:07:45;94482.50;;;12.11;53.18
27958;BME280;15295;42.658;23.374;2023-04-10T17:10:10;94476.09;;;12.25;53.12
27958;BME280;15295;42.658;23.374;2023-04-10T17:12:36;94476.78;;;12.32;53.18
27958;BME280;15295;42.658;23.374;2023-04-10T17:15:03;94496.09;;;12.52;52.92
27958;BME280;15295;42.658;23.374;2023-04-10T17:17:28;94503.81;;;12.61;52.97
27958;BME280;15295;42.658;23.374;2023-04-10T17:19:53;94497.66;;;12.53;52.21
27958;BME280;15295;42.658;23.374;2023-04-10T17:22:19;94508.88;;;12.66;51.91
27958;BME280;15295;42.658;23.374;2023-04-10T17:24:47;94511.09;;;12.74;51.94
27958;BME280;15295;42.658;23.374;2023-04-10T17:27:12;94513.78;;;12.78;51.61
27958;BME280;15295;42.658;23.374;2023-04-10T17:29:38;94516.06;;;12.83;51.79
27958;BME280;15295;42.658;23.374;2023-04-10T17:32:04;94527.97;;;12.99;51.93
27958;BME280;15295;42.658;23.374;2023-04-10T17:34:30;94495.84;;;13.00;52.24
27958;BME280;15295;42.658;23.374;2023-04-10T17:36:56;94511.34;;;13.13;51.96
27958;BME280;15295;42.658;23.374;2023-04-10T17:39:22;94506.38;;;13.05;52.00
27958;BME280;15295;42.658;23.374;2023-04-10T17:41:47;94507.19;;;13.02;52.24
27958;BME280;15295;42.658;23.374;2023-04-10T17:44:12;94512.41;;;12.93;52.69
27958;BME280;15295;42.658;23.374;2023-04-10T17:46:38;94500.84;;;12.78;53.01
27958;BME280;15295;42.658;23.374;2023-04-10T17:49:04;94501.59;;;12.79;53.48
27958;BME280;15295;42.658;23.374;2023-04-10T17:51:29;94510.09;;;12.88;53.22
27958;BME280;15295;42.658;23.374;2023-04-10T17:53:55;94504.53;;;12.95;53.52
27958;BME280;15295;42.658;23.374;2023-04-10T17:56:21;94514.19;;;13.03;53.62
27958;BME280;15295;42.658;23.374;2023-04-10T17:58:46;94517.72;;;13.03;53.51
27958;BME280;15295;42.658;23.374;2023-04-10T18:01:20;94519.56;;;13.13;54.24
27958;BME280;15295;42.658;23.374;2023-04-10T18:03:46;94496.53;;;13.07;54.35
27958;BME280;15295;42.658;23.374;2023-04-10T18:06:11;94534.63;;;13.29;54.64
27958;BME280;15295;42.658;23.374;2023-04-10T18:08:36;94532.19;;;13.34;54.48
27958;BME280;15295;42.658;23.374;2023-04-10T18:11:02;94524.78;;;13.31;54.26
27958;BME280;15295;42.658;23.374;2023-04-10T18:13:28;94544.63;;;13.42;54.32
27958;BME280;15295;42.658;23.374;2023-04-10T18:15:53;94541.44;;;13.44;54.30
27958;BME280;15295;42.658;23.374;2023-04-10T18:18:18;94525.88;;;13.37;53.90
27958;BME280;15295;42.658;23.374;2023-04-10T18:20:44;94537.09;;;13.46;53.76
27958;BME280;15295;42.658;23.374;2023-04-10T18:23:09;94546.84;;;13.51;53.35
27958;BME280;15295;42.658;23.374;2023-04-10T18:25:35;94524.31;;;13.36;53.72
27958;BME280;15295;42.658;23.374;2023-04-10T18:28:00;94543.66;;;13.52;53.67
27958;BME280;15295;42.658;23.374;2023-04-10T18:30:26;94556.09;;;13.60;53.26
27958;BME280;15295;42.658;23.374;2023-04-10T18:32:51;94564.94;;;13.71;53.25
27958;BME280;15295;42.658;23.374;2023-04-10T18:35:17;94552.75;;;13.72;53.29
27958;BME280;15295;42.658;23.374;2023-04-10T18:37:42;94553.16;;;13.71;53.15
27958;BME280;15295;42.658;23.374;2023-04-10T18:40:08;94533.28;;;13.63;53.35
27958;BME280;15295;42.658;23.374;2023-04-10T18:42:34;94551.09;;;13.78;53.42
27958;BME280;15295;42.658;23.374;2023-04-10T18:44:59;94540.56;;;13.73;53.43
27958;BME280;15295;42.658;23.374;2023-04-10T18:47:26;94527.81;;;13.63;53.65
27958;BME280;15295;42.658;23.374;2023-04-10T18:49:51;94548.03;;;13.73;53.59
27958;BME280;15295;42.658;23.374;2023-04-10T18:52:17;94550.47;;;13.67;53.59
27958;BME280;15295;42.658;23.374;2023-04-10T18:54:43;94546.84;;;13.74;53.73
27958;BME280;15295;42.658;23.374;2023-04-10T18:57:09;94558.25;;;13.72;54.02
27958;BME280;15295;42.658;23.374;2023-04-10T18:59:36;94536.16;;;13.56;53.90
27958;BME280;15295;42.658;23.374;2023-04-10T19:02:01;94548.44;;;13.48;54.30
27958;BME280;15295;42.658;23.374;2023-04-10T19:04:27;94535.31;;;13.36;54.32